createdAt,value
2023-05-14T00:01:16.733Z,37.60
2023-05-14T00:06:19.699Z,36.50
2023-05-14T00:11:22.503Z,41.70
2023-05-14T00:16:25.533Z,74.20
2023-05-14T00:21:28.422Z,43.90
2023-05-14T00:26:31.396Z,36.30
2023-05-14T00:31:34.175Z,35.40
2023-05-14T00:36:37.043Z,35.20
2023-05-14T00:41:40.049Z,36.80
2023-05-14T00:46:43.896Z,37.40
2023-05-14T00:51:47.220Z,39.70
2023-05-14T00:56:51.113Z,34.60
2023-05-14T01:01:54.521Z,32.30
2023-05-14T01:07:21.063Z,36.40
2023-05-14T01:12:53.388Z,63.30
2023-05-14T01:18:01.985Z,87.70
2023-05-14T01:23:05.020Z,93.90
2023-05-14T01:28:19.434Z,64.00
2023-05-14T01:33:25.023Z,63.60
2023-05-14T01:38:31.852Z,50.90
2023-05-14T01:43:36.008Z,35.60
2023-05-14T01:48:38.983Z,32.30
2023-05-14T01:53:41.834Z,33.40
2023-05-14T01:58:44.817Z,33.00
2023-05-14T02:03:47.664Z,31.20
2023-05-14T02:08:51.000Z,31.10
2023-05-14T02:13:53.880Z,28.80
2023-05-14T02:18:56.790Z,38.30
2023-05-14T02:23:59.694Z,37.10
2023-05-14T02:29:02.518Z,41.90
2023-05-14T02:34:06.863Z,37.00
2023-05-14T02:39:09.671Z,38.50
2023-05-14T02:44:12.491Z,30.80
2023-05-14T02:49:15.271Z,30.60
2023-05-14T02:54:18.075Z,30.20
2023-05-14T02:59:20.854Z,33.10
2023-05-14T03:04:24.273Z,31.00
2023-05-14T03:09:27.101Z,26.80
2023-05-14T03:14:29.903Z,32.30
2023-05-14T03:19:32.724Z,32.50
2023-05-14T03:24:35.648Z,29.80
2023-05-14T03:29:38.514Z,27.00
2023-05-14T03:34:41.672Z,25.50
2023-05-14T03:39:44.491Z,29.20
2023-05-14T03:44:47.322Z,32.80
2023-05-14T03:49:50.201Z,32.10
2023-05-14T03:54:53.142Z,26.40
2023-05-14T03:59:55.931Z,20.50
2023-05-14T04:04:58.799Z,33.20
2023-05-14T04:10:04.539Z,27.70
2023-05-14T04:15:08.833Z,29.20
2023-05-14T04:20:11.804Z,34.70
2023-05-14T04:25:14.619Z,32.40
2023-05-14T04:30:17.755Z,28.70
2023-05-14T04:35:23.443Z,30.60
2023-05-14T04:40:28.018Z,26.40
2023-05-14T04:45:34.292Z,25.10
2023-05-14T04:50:37.353Z,24.00
2023-05-14T04:55:40.164Z,25.80
2023-05-14T05:00:43.092Z,28.20
2023-05-14T05:05:45.892Z,23.10
2023-05-14T05:10:48.813Z,25.40
2023-05-14T05:15:51.669Z,23.60
2023-05-14T05:20:54.563Z,27.60
2023-05-14T05:25:57.380Z,29.10
2023-05-14T05:31:00.288Z,24.60
2023-05-14T05:36:03.287Z,27.00
2023-05-14T05:41:06.569Z,23.90
2023-05-14T05:46:09.471Z,19.70
2023-05-14T05:56:15.147Z,20.00
2023-05-14T06:01:17.945Z,21.30
2023-05-14T06:06:21.893Z,18.50
2023-05-14T06:11:25.460Z,16.50
2023-05-14T06:16:28.362Z,15.50
2023-05-14T06:26:33.898Z,15.60
2023-05-14T06:36:39.577Z,16.00
2023-05-14T06:41:42.384Z,15.10
2023-05-14T06:51:47.991Z,14.20
2023-05-14T06:56:50.832Z,12.40
2023-05-14T07:01:53.750Z,13.50
2023-05-14T07:06:56.667Z,11.60
2023-05-14T07:11:59.482Z,11.30
2023-05-14T07:17:02.412Z,12.00
2023-05-14T07:22:05.607Z,13.30
2023-05-14T07:27:09.149Z,10.10
2023-05-14T07:32:14.722Z,12.90
2023-05-14T07:37:19.040Z,8.30
2023-05-14T07:42:34.479Z,16.90
2023-05-14T07:47:40.721Z,10.40
2023-05-14T07:52:43.782Z,9.50
2023-05-14T07:57:46.605Z,7.80
2023-05-14T08:02:50.487Z,6.30
2023-05-14T08:07:53.484Z,8.60
2023-05-14T08:12:56.387Z,10.70
2023-05-14T08:18:03.653Z,6.50
2023-05-14T08:23:07.598Z,6.70
2023-05-14T08:28:10.424Z,7.60
2023-05-14T08:33:13.469Z,8.30
2023-05-14T08:38:16.357Z,6.50
2023-05-14T08:43:22.904Z,8.20
2023-05-14T08:48:29.394Z,8.20
2023-05-14T08:53:32.295Z,7.10
2023-05-14T08:58:35.103Z,7.50
2023-05-14T09:03:38.836Z,6.80
2023-05-14T09:08:41.965Z,6.90
2023-05-14T09:13:44.776Z,8.90
2023-05-14T09:18:48.172Z,6.10
2023-05-14T09:23:55.465Z,7.30
2023-05-14T09:29:02.782Z,8.00
2023-05-14T09:34:05.955Z,8.70
2023-05-14T09:39:08.842Z,6.90
2023-05-14T09:44:11.708Z,7.10
2023-05-14T09:49:15.116Z,8.70
2023-05-14T09:54:17.992Z,8.80
2023-05-14T09:59:20.830Z,7.60
2023-05-14T10:04:24.483Z,6.50
2023-05-14T10:09:29.836Z,9.60
2023-05-14T10:14:38.820Z,7.50
2023-05-14T10:19:42.002Z,6.50
2023-05-14T10:24:46.234Z,7.10
2023-05-14T10:29:56.371Z,7.50
2023-05-14T10:35:01.832Z,7.10
2023-05-14T10:40:06.835Z,7.50
2023-05-14T10:45:12.821Z,10.60
2023-05-14T10:50:16.249Z,8.50
2023-05-14T10:55:19.119Z,8.80
2023-05-14T11:00:26.194Z,6.50
2023-05-14T11:05:29.360Z,8.90
2023-05-14T11:10:32.581Z,5.70
2023-05-14T11:15:36.235Z,9.80
2023-05-14T11:20:39.177Z,6.80
2023-05-14T11:25:43.008Z,9.00
2023-05-14T11:30:46.525Z,7.30
2023-05-14T11:35:49.490Z,6.70
2023-05-14T11:40:56.828Z,7.00
2023-05-14T11:45:59.773Z,7.10
2023-05-14T11:51:02.663Z,6.10
2023-05-14T11:56:07.603Z,6.30
2023-05-14T12:01:13.792Z,8.70
2023-05-14T12:06:16.593Z,6.20
2023-05-14T12:11:21.378Z,6.40
2023-05-14T12:16:24.244Z,8.10
2023-05-14T12:21:28.014Z,5.80
2023-05-14T12:26:34.264Z,10.50
2023-05-14T12:31:37.088Z,8.30
2023-05-14T12:36:39.945Z,9.00
2023-05-14T12:41:42.732Z,7.90
2023-05-14T12:46:46.196Z,6.50
2023-05-14T12:51:51.175Z,8.90
2023-05-14T12:56:55.663Z,6.30
2023-05-14T13:01:58.498Z,8.40
2023-05-14T13:07:01.332Z,8.40
2023-05-14T13:12:04.675Z,9.10
2023-05-14T13:17:08.277Z,5.20
2023-05-14T13:22:11.211Z,8.30
2023-05-14T13:27:14.025Z,6.60
2023-05-14T13:32:16.883Z,8.20
2023-05-14T13:37:20.077Z,6.90
2023-05-14T13:42:23.758Z,6.90
2023-05-14T13:47:27.029Z,5.10
2023-05-14T13:52:29.891Z,8.40
2023-05-14T13:57:32.723Z,7.60
2023-05-14T14:02:35.605Z,7.20
2023-05-14T14:07:40.676Z,8.90
2023-05-14T14:12:43.486Z,7.00
2023-05-14T14:17:46.377Z,11.10
2023-05-14T14:22:49.357Z,6.60
2023-05-14T14:27:52.281Z,4.80
2023-05-14T14:32:55.337Z,6.30
2023-05-14T14:37:58.290Z,6.90
2023-05-14T14:43:02.244Z,7.50
2023-05-14T14:48:38.009Z,5.40
2023-05-14T14:53:40.913Z,4.80
2023-05-14T14:58:43.824Z,8.10
2023-05-14T15:03:48.411Z,7.10
2023-05-14T15:08:51.283Z,5.60
2023-05-14T15:13:54.068Z,5.80
2023-05-14T15:18:56.922Z,4.50
2023-05-14T15:23:59.908Z,8.20
2023-05-14T15:29:04.764Z,5.60
2023-05-14T15:34:07.691Z,7.90
2023-05-14T15:39:10.509Z,7.70
2023-05-14T15:44:13.297Z,8.10
2023-05-14T15:49:16.122Z,7.00
2023-05-14T15:54:18.966Z,6.90
2023-05-14T15:59:21.883Z,11.00
2023-05-14T16:04:25.294Z,8.20
2023-05-14T16:09:28.118Z,8.90
2023-05-14T16:14:31.099Z,6.00
2023-05-14T16:19:33.929Z,10.90
2023-05-14T16:24:36.776Z,11.80
2023-05-14T16:29:39.595Z,5.00
2023-05-14T16:34:47.542Z,6.70
2023-05-14T16:39:50.500Z,9.90
2023-05-14T16:44:53.387Z,6.80
2023-05-14T16:49:57.656Z,6.50
2023-05-14T16:55:00.589Z,5.30
2023-05-14T17:00:06.304Z,6.30
2023-05-14T17:05:09.483Z,7.80
2023-05-14T17:10:12.418Z,8.60
2023-05-14T17:15:15.246Z,8.50
2023-05-14T17:20:18.070Z,8.10
2023-05-14T17:25:24.038Z,9.20
2023-05-14T17:30:27.200Z,12.00
2023-05-14T17:35:30.095Z,10.20
2023-05-14T17:40:33.648Z,10.60
2023-05-14T17:45:46.284Z,5.80
2023-05-14T17:50:56.497Z,15.00
2023-05-14T17:55:59.707Z,10.10
2023-05-14T18:01:02.664Z,8.60
2023-05-14T18:06:05.846Z,39.20
2023-05-14T18:11:08.913Z,21.30
2023-05-14T18:16:11.742Z,14.50
2023-05-14T18:21:14.642Z,14.70
2023-05-14T18:26:17.872Z,152.50
2023-05-14T18:31:20.835Z,59.80
2023-05-14T18:36:23.792Z,29.70
2023-05-14T18:41:26.685Z,48.80
2023-05-14T18:46:29.702Z,27.30
2023-05-14T18:51:32.732Z,14.40
2023-05-14T18:56:37.575Z,15.20
2023-05-14T19:01:40.540Z,29.20
2023-05-14T19:06:43.924Z,25.70
2023-05-14T19:11:47.692Z,20.70
2023-05-14T19:16:50.868Z,31.40
2023-05-14T19:21:53.731Z,30.90
2023-05-14T19:31:59.590Z,34.20
2023-05-14T19:37:03.050Z,33.80
2023-05-14T19:42:06.331Z,68.30
2023-05-14T19:47:09.388Z,117.00
2023-05-14T19:52:12.289Z,81.30
2023-05-14T20:02:18.642Z,115.70
2023-05-14T20:07:21.678Z,107.20
2023-05-14T20:12:24.516Z,56.90
2023-05-14T20:17:27.428Z,105.40
2023-05-14T20:22:30.426Z,188.40
2023-05-14T20:32:36.083Z,48.20
2023-05-14T20:37:39.221Z,38.00
2023-05-14T20:47:44.974Z,26.40
2023-05-14T20:57:50.670Z,29.20
2023-05-14T21:02:54.027Z,34.80
2023-05-14T21:12:59.770Z,24.80
2023-05-14T21:18:03.161Z,36.10
2023-05-14T21:23:06.092Z,29.30
2023-05-14T21:28:09.155Z,55.80
2023-05-14T21:33:12.007Z,64.40
2023-05-14T21:38:15.361Z,54.80
2023-05-14T21:43:18.305Z,36.50
2023-05-14T21:48:21.838Z,25.70
2023-05-14T21:53:24.742Z,22.70
2023-05-14T21:58:27.732Z,22.40
2023-05-14T22:03:30.605Z,24.80
2023-05-14T22:08:33.462Z,19.80
2023-05-14T22:13:40.893Z,19.20
2023-05-14T22:18:44.257Z,15.80
2023-05-14T22:23:48.010Z,15.30
2023-05-14T22:28:50.872Z,14.50
2023-05-14T22:33:53.799Z,16.60
2023-05-14T22:38:56.599Z,16.00
2023-05-14T22:43:59.405Z,16.70
2023-05-14T22:49:02.321Z,13.00
2023-05-14T22:54:05.200Z,16.80
2023-05-14T22:59:08.067Z,11.60
2023-05-14T23:04:11.192Z,13.90
2023-05-14T23:14:18.050Z,14.10
2023-05-14T23:19:21.987Z,17.60
2023-05-14T23:24:26.237Z,15.90
2023-05-14T23:29:29.072Z,15.30
2023-05-14T23:34:31.892Z,15.10
2023-05-14T23:39:34.725Z,14.10
2023-05-14T23:44:37.568Z,16.20
2023-05-14T23:49:41.011Z,13.40
2023-05-14T23:54:43.804Z,15.00
2023-05-14T23:59:46.894Z,14.30
